createdAt,value
2019-02-22T00:01:25.768Z,88.55
2019-02-22T00:03:55.140Z,88.68
2019-02-22T00:06:24.453Z,88.71
2019-02-22T00:08:53.869Z,88.74
2019-02-22T00:11:23.265Z,88.82
2019-02-22T00:13:52.622Z,88.74
2019-02-22T00:16:21.939Z,88.65
2019-02-22T00:18:51.314Z,88.62
2019-02-22T00:21:20.638Z,88.70
2019-02-22T00:23:50.059Z,88.81
2019-02-22T00:26:19.402Z,88.66
2019-02-22T00:28:48.713Z,88.61
2019-02-22T00:31:18.057Z,88.65
2019-02-22T00:33:47.369Z,88.76
2019-02-22T00:36:16.780Z,88.77
2019-02-22T00:38:46.115Z,88.48
2019-02-22T00:41:15.463Z,88.47
2019-02-22T00:43:44.851Z,88.51
2019-02-22T00:46:14.211Z,88.58
2019-02-22T00:48:43.550Z,88.85
2019-02-22T00:51:12.900Z,88.14
2019-02-22T00:53:42.219Z,88.38
2019-02-22T00:56:12.137Z,88.04
2019-02-22T00:58:41.465Z,87.62
2019-02-22T01:01:10.804Z,87.99
2019-02-22T01:03:40.150Z,88.30
2019-02-22T01:06:09.511Z,88.45
2019-02-22T01:08:38.833Z,87.94
2019-02-22T01:11:08.198Z,86.67
2019-02-22T01:13:37.510Z,85.94
2019-02-22T01:16:06.861Z,85.46
2019-02-22T01:18:36.184Z,84.82
2019-02-22T01:21:05.964Z,84.41
2019-02-22T01:23:35.286Z,84.60
2019-02-22T01:26:05.261Z,84.23
2019-02-22T01:28:35.020Z,84.83
2019-02-22T01:31:04.369Z,84.72
2019-02-22T01:33:33.697Z,84.86
2019-02-22T01:36:03.360Z,85.13
2019-02-22T01:38:32.683Z,84.72
2019-02-22T01:41:02.034Z,84.42
2019-02-22T01:43:33.410Z,85.46
2019-02-22T01:46:02.401Z,85.33
2019-02-22T01:48:31.722Z,85.05
2019-02-22T01:51:01.071Z,84.79
2019-02-22T01:53:30.388Z,85.28
2019-02-22T01:55:59.740Z,85.52
2019-02-22T01:58:29.076Z,85.79
2019-02-22T02:00:58.421Z,85.84
2019-02-22T02:03:27.739Z,85.87
2019-02-22T02:05:57.101Z,86.14
2019-02-22T02:08:26.407Z,85.08
2019-02-22T02:10:55.764Z,85.69
2019-02-22T02:13:25.654Z,86.43
2019-02-22T02:15:55.004Z,85.87
2019-02-22T02:18:24.326Z,86.17
2019-02-22T02:20:53.729Z,86.24
2019-02-22T02:23:23.207Z,85.98
2019-02-22T02:25:52.631Z,85.50
2019-02-22T02:28:21.950Z,85.57
2019-02-22T02:30:51.297Z,85.72
2019-02-22T02:33:20.608Z,85.89
2019-02-22T02:35:49.970Z,86.54
2019-02-22T02:38:19.290Z,85.96
2019-02-22T02:40:48.641Z,86.36
2019-02-22T02:43:18.029Z,85.79
2019-02-22T02:45:47.374Z,85.15
2019-02-22T02:48:16.714Z,85.41
2019-02-22T02:50:46.032Z,84.38
2019-02-22T02:53:15.367Z,84.72
2019-02-22T02:55:44.735Z,84.68
2019-02-22T02:58:14.042Z,85.46
2019-02-22T03:00:43.385Z,85.56
2019-02-22T03:03:12.720Z,84.08
2019-02-22T03:05:55.642Z,83.65
2019-02-22T03:08:26.606Z,83.48
2019-02-22T03:10:55.983Z,83.61
2019-02-22T03:13:25.305Z,82.90
2019-02-22T03:15:54.643Z,83.44
2019-02-22T03:18:23.997Z,83.35
2019-02-22T03:20:53.320Z,83.23
2019-02-22T03:23:22.666Z,83.60
2019-02-22T03:25:51.984Z,83.19
2019-02-22T03:28:21.361Z,83.31
2019-02-22T03:30:50.750Z,83.27
2019-02-22T03:33:20.093Z,82.95
2019-02-22T03:35:49.412Z,83.05
2019-02-22T03:38:18.775Z,82.71
2019-02-22T03:40:48.092Z,83.59
2019-02-22T03:43:17.442Z,84.03
2019-02-22T03:45:46.765Z,83.74
2019-02-22T03:48:16.125Z,83.80
2019-02-22T03:50:45.429Z,83.55
2019-02-22T03:53:25.471Z,84.20
2019-02-22T03:55:54.824Z,84.43
2019-02-22T03:58:24.128Z,84.63
2019-02-22T04:00:53.450Z,84.67
2019-02-22T04:03:22.790Z,84.88
2019-02-22T04:05:52.104Z,84.59
2019-02-22T04:08:21.449Z,84.96
2019-02-22T04:10:50.772Z,85.01
2019-02-22T04:13:20.123Z,85.02
2019-02-22T04:15:50.021Z,84.48
2019-02-22T04:18:19.376Z,84.20
2019-02-22T04:20:48.708Z,83.47
2019-02-22T04:23:18.054Z,83.28
2019-02-22T04:25:47.388Z,82.62
2019-02-22T04:28:16.739Z,82.42
2019-02-22T04:30:46.063Z,82.21
2019-02-22T04:33:15.431Z,82.30
2019-02-22T04:35:44.738Z,81.33
2019-02-22T04:38:14.078Z,81.13
2019-02-22T04:40:43.492Z,79.86
2019-02-22T04:43:12.840Z,79.04
2019-02-22T04:45:42.159Z,79.69
2019-02-22T04:48:11.505Z,79.24
2019-02-22T04:50:40.987Z,79.60
2019-02-22T04:53:10.418Z,78.24
2019-02-22T04:55:39.730Z,79.49
2019-02-22T04:58:09.070Z,79.47
2019-02-22T05:00:38.395Z,79.14
2019-02-22T05:03:07.756Z,80.00
2019-02-22T05:05:37.080Z,79.98
2019-02-22T05:08:06.690Z,79.73
2019-02-22T05:10:36.349Z,79.33
2019-02-22T05:13:05.758Z,77.62
2019-02-22T05:15:35.091Z,77.30
2019-02-22T05:18:04.451Z,78.35
2019-02-22T05:20:33.782Z,77.18
2019-02-22T05:23:05.322Z,76.80
2019-02-22T05:25:34.342Z,77.90
2019-02-22T05:28:03.748Z,77.69
2019-02-22T05:30:33.089Z,77.36
2019-02-22T05:33:02.434Z,78.28
2019-02-22T05:35:31.832Z,77.82
2019-02-22T05:38:01.976Z,76.94
2019-02-22T05:40:31.329Z,77.33
2019-02-22T05:43:00.645Z,77.01
2019-02-22T05:45:29.969Z,77.48
2019-02-22T05:47:59.321Z,76.40
2019-02-22T05:50:28.752Z,76.10
2019-02-22T05:52:58.115Z,77.43
2019-02-22T05:55:27.467Z,77.22
2019-02-22T05:57:56.794Z,76.54
2019-02-22T06:00:26.151Z,76.31
2019-02-22T06:02:55.467Z,76.23
2019-02-22T06:05:24.842Z,76.14
2019-02-22T06:07:54.189Z,76.05
2019-02-22T06:10:23.561Z,74.74
2019-02-22T06:12:54.517Z,75.36
2019-02-22T06:15:23.877Z,74.39
2019-02-22T06:17:53.208Z,75.36
2019-02-22T06:20:22.621Z,75.00
2019-02-22T06:22:51.924Z,74.74
2019-02-22T06:25:22.932Z,73.70
2019-02-22T06:27:52.282Z,72.23
2019-02-22T06:30:21.667Z,71.94
2019-02-22T06:32:51.030Z,72.00
2019-02-22T06:35:20.431Z,72.10
2019-02-22T06:37:49.830Z,71.98
2019-02-22T06:40:19.204Z,72.50
2019-02-22T06:42:48.564Z,72.07
2019-02-22T06:45:17.953Z,73.22
2019-02-22T06:47:49.926Z,73.33
2019-02-22T06:50:19.576Z,74.50
2019-02-22T06:52:48.919Z,75.05
2019-02-22T06:55:18.312Z,74.85
2019-02-22T06:57:47.641Z,74.24
2019-02-22T07:00:17.014Z,73.59
2019-02-22T07:02:46.607Z,74.28
2019-02-22T07:05:15.971Z,73.87
2019-02-22T07:07:45.371Z,72.60
2019-02-22T07:10:14.760Z,71.67
2019-02-22T07:12:56.579Z,72.04
2019-02-22T07:15:19.594Z,72.11
2019-02-22T07:17:49.208Z,71.98
2019-02-22T07:20:18.596Z,72.17
2019-02-22T07:22:48.898Z,71.80
2019-02-22T07:25:18.278Z,72.19
2019-02-22T07:27:47.632Z,71.32
2019-02-22T07:30:17.078Z,72.37
2019-02-22T07:32:46.972Z,71.26
2019-02-22T07:35:16.370Z,72.63
2019-02-22T07:37:45.696Z,71.37
2019-02-22T07:40:15.069Z,70.03
2019-02-22T07:42:44.378Z,70.73
2019-02-22T07:45:13.741Z,70.01
2019-02-22T07:47:43.077Z,68.77
2019-02-22T07:50:12.442Z,68.98
2019-02-22T07:52:41.758Z,69.20
2019-02-22T07:55:12.479Z,68.36
2019-02-22T07:57:41.830Z,69.39
2019-02-22T08:00:13.707Z,67.45
2019-02-22T08:02:43.029Z,65.87
2019-02-22T08:05:12.396Z,66.06
2019-02-22T08:07:41.723Z,64.81
2019-02-22T08:10:12.053Z,64.11
2019-02-22T08:12:41.384Z,64.26
2019-02-22T08:15:11.069Z,63.44
2019-02-22T08:17:40.438Z,64.44
2019-02-22T08:20:09.802Z,58.20
2019-02-22T08:22:39.128Z,53.02
2019-02-22T08:25:09.726Z,49.54
2019-02-22T08:27:40.219Z,49.02
2019-02-22T08:30:11.161Z,46.64
2019-02-22T08:32:40.496Z,43.75
2019-02-22T08:35:09.864Z,44.51
2019-02-22T08:37:39.185Z,42.03
2019-02-22T08:40:10.501Z,41.52
2019-02-22T08:42:39.830Z,42.19
2019-02-22T08:45:10.345Z,43.48
2019-02-22T08:47:39.670Z,41.71
2019-02-22T08:50:09.017Z,42.50
2019-02-22T08:52:38.365Z,43.00
2019-02-22T08:55:07.691Z,41.98
2019-02-22T08:57:37.599Z,41.79
2019-02-22T09:00:10.400Z,41.75
2019-02-22T09:02:39.752Z,39.80
2019-02-22T09:05:10.154Z,38.45
2019-02-22T09:07:39.511Z,37.33
2019-02-22T09:10:11.927Z,37.98
2019-02-22T09:12:41.301Z,40.74
2019-02-22T09:15:11.113Z,41.31
2019-02-22T09:17:40.484Z,44.62
2019-02-22T09:20:13.095Z,42.28
2019-02-22T09:22:42.588Z,41.90
2019-02-22T09:25:11.918Z,42.15
2019-02-22T09:27:41.516Z,39.66
2019-02-22T09:30:11.895Z,38.97
2019-02-22T09:32:41.293Z,37.52
2019-02-22T09:35:11.377Z,38.14
2019-02-22T09:37:40.734Z,37.46
2019-02-22T09:40:14.646Z,36.71
2019-02-22T09:42:43.110Z,34.42
2019-02-22T09:45:13.215Z,35.95
2019-02-22T09:47:42.583Z,36.17
2019-02-22T09:50:14.258Z,35.33
2019-02-22T09:52:43.693Z,33.97
2019-02-22T09:55:13.546Z,32.03
2019-02-22T09:57:42.933Z,35.75
2019-02-22T10:00:14.166Z,35.45
2019-02-22T10:02:44.806Z,32.99
2019-02-22T10:05:14.506Z,33.90
2019-02-22T10:07:43.873Z,33.82
2019-02-22T10:10:13.197Z,32.62
2019-02-22T10:12:42.557Z,34.21
2019-02-22T10:15:11.876Z,33.48
2019-02-22T10:17:41.334Z,31.12
2019-02-22T10:20:10.828Z,30.85
2019-02-22T10:22:40.201Z,33.38
2019-02-22T10:25:09.545Z,32.56
2019-02-22T10:27:38.877Z,30.61
2019-02-22T10:30:12.368Z,33.16
2019-02-22T10:32:41.719Z,31.41
2019-02-22T10:35:11.049Z,32.83
2019-02-22T10:37:40.407Z,33.90
2019-02-22T10:40:10.282Z,35.41
2019-02-22T10:42:39.638Z,32.41
2019-02-22T10:45:10.411Z,34.05
2019-02-22T10:47:39.780Z,34.28
2019-02-22T10:50:10.232Z,35.79
2019-02-22T10:52:39.604Z,35.65
2019-02-22T10:55:11.169Z,37.08
2019-02-22T10:57:40.549Z,36.56
2019-02-22T11:00:12.858Z,34.45
2019-02-22T11:02:42.238Z,33.51
2019-02-22T11:05:11.569Z,34.42
2019-02-22T11:07:41.218Z,35.50
2019-02-22T11:10:12.211Z,32.50
2019-02-22T11:12:41.551Z,33.96
2019-02-22T11:15:12.442Z,31.76
2019-02-22T11:17:41.766Z,34.51
2019-02-22T11:20:11.661Z,32.37
2019-02-22T11:22:40.995Z,31.63
2019-02-22T11:25:16.796Z,29.25
2019-02-22T11:27:46.097Z,28.75
2019-02-22T11:30:15.620Z,28.51
2019-02-22T11:32:44.955Z,29.16
2019-02-22T11:35:14.387Z,28.16
2019-02-22T11:37:43.715Z,27.49
2019-02-22T11:40:13.076Z,28.98
2019-02-22T11:42:42.405Z,27.75
2019-02-22T11:45:11.777Z,26.69
2019-02-22T11:47:41.101Z,28.34
2019-02-22T11:50:11.397Z,27.85
2019-02-22T11:52:40.713Z,27.51
2019-02-22T11:55:10.946Z,27.02
2019-02-22T11:57:40.296Z,24.47
2019-02-22T12:00:17.149Z,24.06
2019-02-22T12:02:47.210Z,23.54
2019-02-22T12:05:16.663Z,23.48
2019-02-22T12:07:45.989Z,22.17
2019-02-22T12:10:15.345Z,23.37
2019-02-22T12:12:44.673Z,25.11
2019-02-22T12:15:14.477Z,26.62
2019-02-22T12:17:43.807Z,26.09
2019-02-22T12:20:13.157Z,25.37
2019-02-22T12:22:42.493Z,25.48
2019-02-22T12:25:12.797Z,25.60
2019-02-22T12:27:42.121Z,25.28
2019-02-22T12:30:16.087Z,25.02
2019-02-22T12:32:45.417Z,23.73
2019-02-22T12:35:14.781Z,22.64
2019-02-22T12:37:44.111Z,22.28
2019-02-22T12:40:14.547Z,21.99
2019-02-22T12:42:43.878Z,23.14
2019-02-22T12:45:13.648Z,23.50
2019-02-22T12:47:42.986Z,23.99
2019-02-22T12:50:13.195Z,23.47
2019-02-22T12:52:42.522Z,23.58
2019-02-22T12:55:11.884Z,22.67
2019-02-22T12:57:41.384Z,21.32
2019-02-22T13:00:18.630Z,21.86
2019-02-22T13:02:48.113Z,21.20
2019-02-22T13:05:19.621Z,20.52
2019-02-22T13:07:48.953Z,22.68
2019-02-22T13:10:18.314Z,20.89
2019-02-22T13:12:47.647Z,20.43
2019-02-22T13:15:17.016Z,21.17
2019-02-22T13:17:46.347Z,20.15
2019-02-22T13:20:15.717Z,19.95
2019-02-22T13:22:45.084Z,22.13
2019-02-22T13:25:14.468Z,21.50
2019-02-22T13:27:43.827Z,19.66
2019-02-22T13:30:14.590Z,20.52
2019-02-22T13:32:43.955Z,20.08
2019-02-22T13:35:13.286Z,22.20
2019-02-22T13:37:42.638Z,21.08
2019-02-22T13:40:15.966Z,21.85
2019-02-22T13:42:45.341Z,23.92
2019-02-22T13:45:26.111Z,25.04
2019-02-22T13:47:45.974Z,23.14
2019-02-22T13:50:16.146Z,23.51
2019-02-22T13:52:45.594Z,23.36
2019-02-22T13:55:14.995Z,22.35
2019-02-22T13:57:44.354Z,21.16
2019-02-22T14:00:16.287Z,20.89
2019-02-22T14:02:45.652Z,20.06
2019-02-22T14:05:14.988Z,19.72
2019-02-22T14:07:56.932Z,19.32
2019-02-22T14:10:26.484Z,19.78
2019-02-22T14:12:55.915Z,20.11
2019-02-22T14:15:25.232Z,20.07
2019-02-22T14:17:54.588Z,20.33
2019-02-22T14:20:23.924Z,21.55
2019-02-22T14:22:53.335Z,22.43
2019-02-22T14:25:22.630Z,22.92
2019-02-22T14:27:51.995Z,23.38
2019-02-22T14:30:21.400Z,24.62
2019-02-22T14:32:50.777Z,22.16
2019-02-22T14:35:20.098Z,24.64
2019-02-22T14:37:49.462Z,23.60
2019-02-22T14:40:18.795Z,25.47
2019-02-22T14:42:48.302Z,27.70
2019-02-22T14:45:17.627Z,29.43
2019-02-22T14:47:46.988Z,29.17
2019-02-22T14:50:18.142Z,30.48
2019-02-22T14:52:47.482Z,31.22
2019-02-22T14:55:16.823Z,34.16
2019-02-22T14:57:46.212Z,34.02
2019-02-22T15:00:19.932Z,33.98
2019-02-22T15:02:49.290Z,34.80
2019-02-22T15:05:18.623Z,35.58
2019-02-22T15:07:48.196Z,36.54
2019-02-22T15:10:18.770Z,37.00
2019-02-22T15:12:48.297Z,38.57
2019-02-22T15:15:22.920Z,40.37
2019-02-22T15:17:53.921Z,39.48
2019-02-22T15:20:23.321Z,37.96
2019-02-22T15:22:52.683Z,38.06
2019-02-22T15:25:22.015Z,38.68
2019-02-22T15:27:51.364Z,38.69
2019-02-22T15:30:20.803Z,38.62
2019-02-22T15:32:50.121Z,39.16
2019-02-22T15:35:19.451Z,40.01
2019-02-22T15:37:48.809Z,39.68
2019-02-22T15:40:18.143Z,41.28
2019-02-22T15:42:47.495Z,41.10
2019-02-22T15:45:17.975Z,39.55
2019-02-22T15:47:48.831Z,40.33
2019-02-22T15:50:19.204Z,41.75
2019-02-22T15:52:49.595Z,41.14
2019-02-22T15:55:18.925Z,42.22
2019-02-22T15:57:48.278Z,41.32
2019-02-22T16:00:23.630Z,40.50
2019-02-22T16:02:53.006Z,41.55
2019-02-22T16:05:32.890Z,41.11
2019-02-22T16:08:02.246Z,41.68
2019-02-22T16:10:31.680Z,42.35
2019-02-22T16:13:01.018Z,42.87
2019-02-22T16:15:30.370Z,43.02
2019-02-22T16:17:59.717Z,43.73
2019-02-22T16:20:29.050Z,44.83
2019-02-22T16:22:58.411Z,44.57
2019-02-22T16:25:27.747Z,44.17
2019-02-22T16:27:57.099Z,44.88
2019-02-22T16:30:28.199Z,46.02
2019-02-22T16:32:57.568Z,45.99
2019-02-22T16:35:26.885Z,46.30
2019-02-22T16:37:56.246Z,46.42
2019-02-22T16:40:25.589Z,46.81
2019-02-22T16:42:54.931Z,46.51
2019-02-22T16:45:24.301Z,47.55
2019-02-22T16:47:53.639Z,48.65
2019-02-22T16:50:23.022Z,48.42
2019-02-22T16:52:52.346Z,48.84
2019-02-22T16:55:24.069Z,48.37
2019-02-22T16:57:53.393Z,48.30
2019-02-22T17:00:22.769Z,48.70
2019-02-22T17:02:52.099Z,48.74
2019-02-22T17:05:21.477Z,49.01
2019-02-22T17:07:50.821Z,48.57
2019-02-22T17:10:20.190Z,48.18
2019-02-22T17:12:49.524Z,49.14
2019-02-22T17:15:18.891Z,48.69
2019-02-22T17:17:48.390Z,49.27
2019-02-22T17:20:19.273Z,49.18
2019-02-22T17:22:48.621Z,49.59
2019-02-22T17:25:19.497Z,49.81
2019-02-22T17:27:48.821Z,49.05
2019-02-22T17:30:19.811Z,49.81
2019-02-22T17:32:49.213Z,49.53
2019-02-22T17:35:18.579Z,49.89
2019-02-22T17:37:48.133Z,50.55
2019-02-22T17:40:28.510Z,50.33
2019-02-22T17:42:57.906Z,50.98
2019-02-22T17:45:27.290Z,51.29
2019-02-22T17:47:56.639Z,51.34
2019-02-22T17:50:26.010Z,50.59
2019-02-22T17:52:55.341Z,51.30
2019-02-22T17:55:24.721Z,51.29
2019-02-22T17:57:54.226Z,51.49
2019-02-22T18:00:25.236Z,52.47
2019-02-22T18:02:54.561Z,52.32
2019-02-22T18:05:23.918Z,52.51
2019-02-22T18:07:53.257Z,52.09
2019-02-22T18:10:22.619Z,51.63
2019-02-22T18:12:51.946Z,51.68
2019-02-22T18:15:21.316Z,51.52
2019-02-22T18:17:50.669Z,51.85
2019-02-22T18:20:20.019Z,52.34
2019-02-22T18:22:49.359Z,52.59
2019-02-22T18:25:18.713Z,53.80
2019-02-22T18:27:48.235Z,52.14
2019-02-22T18:30:22.450Z,54.53
2019-02-22T18:32:51.790Z,53.90
2019-02-22T18:35:21.157Z,53.25
2019-02-22T18:37:50.502Z,53.87
2019-02-22T18:40:22.063Z,52.96
2019-02-22T18:42:51.397Z,52.96
2019-02-22T18:45:20.929Z,52.93
2019-02-22T18:47:50.294Z,52.81
2019-02-22T18:50:19.620Z,53.02
2019-02-22T18:52:48.955Z,52.24
2019-02-22T18:55:18.315Z,53.21
2019-02-22T18:57:47.689Z,52.96
2019-02-22T19:00:20.170Z,53.89
2019-02-22T19:02:49.591Z,53.75
2019-02-22T19:05:18.958Z,54.22
2019-02-22T19:07:48.305Z,55.52
2019-02-22T19:10:18.623Z,54.34
2019-02-22T19:12:47.969Z,54.61
2019-02-22T19:15:17.339Z,54.96
2019-02-22T19:17:46.671Z,56.03
2019-02-22T19:20:20.712Z,55.60
2019-02-22T19:22:50.054Z,55.50
2019-02-22T19:25:19.423Z,55.97
2019-02-22T19:27:48.763Z,56.60
2019-02-22T19:30:19.595Z,56.62
2019-02-22T19:32:48.932Z,57.14
2019-02-22T19:35:18.299Z,56.56
2019-02-22T19:37:47.683Z,57.15
2019-02-22T19:40:24.524Z,55.36
2019-02-22T19:42:53.895Z,56.25
2019-02-22T19:45:23.280Z,55.38
2019-02-22T19:47:52.639Z,55.30
2019-02-22T19:50:21.975Z,56.37
2019-02-22T19:52:51.353Z,55.65
2019-02-22T19:55:20.782Z,54.91
2019-02-22T19:57:50.164Z,55.53
2019-02-22T20:00:19.883Z,54.70
2019-02-22T20:02:49.267Z,55.93
2019-02-22T20:05:18.618Z,56.56
2019-02-22T20:07:48.092Z,55.72
2019-02-22T20:10:18.761Z,57.72
2019-02-22T20:12:48.371Z,59.37
2019-02-22T20:15:18.083Z,58.96
2019-02-22T20:17:54.210Z,61.15
2019-02-22T20:20:20.011Z,60.59
2019-02-22T20:22:49.366Z,59.66
2019-02-22T20:25:18.758Z,58.45
2019-02-22T20:27:48.127Z,58.20
2019-02-22T20:30:19.487Z,57.31
2019-02-22T20:32:49.739Z,57.95
2019-02-22T20:35:25.885Z,58.77
2019-02-22T20:37:55.249Z,57.86
2019-02-22T20:40:24.584Z,58.41
2019-02-22T20:42:53.947Z,60.01
2019-02-22T20:45:23.344Z,59.67
2019-02-22T20:48:04.186Z,59.82
2019-02-22T20:50:23.835Z,59.30
2019-02-22T20:52:53.213Z,58.69
2019-02-22T20:55:25.226Z,59.86
2019-02-22T20:57:54.613Z,58.89
2019-02-22T21:00:25.679Z,59.80
2019-02-22T21:02:55.038Z,59.03
2019-02-22T21:05:24.383Z,59.02
2019-02-22T21:07:53.838Z,60.38
2019-02-22T21:10:23.651Z,59.77
2019-02-22T21:12:53.038Z,59.05
2019-02-22T21:15:22.395Z,59.80
2019-02-22T21:17:51.781Z,60.72
2019-02-22T21:20:22.380Z,61.39
2019-02-22T21:22:52.525Z,60.84
2019-02-22T21:25:21.870Z,60.66
2019-02-22T21:27:51.352Z,61.89
2019-02-22T21:30:21.519Z,63.20
2019-02-22T21:32:50.897Z,63.92
2019-02-22T21:35:20.281Z,62.25
2019-02-22T21:37:49.647Z,63.01
2019-02-22T21:40:19.039Z,63.25
2019-02-22T21:42:48.384Z,63.35
2019-02-22T21:45:17.817Z,63.49
2019-02-22T21:47:54.812Z,63.81
2019-02-22T21:50:18.267Z,64.42
2019-02-22T21:52:47.629Z,63.24
2019-02-22T21:55:17.564Z,63.97
2019-02-22T21:57:46.935Z,63.57
2019-02-22T22:00:29.476Z,65.57
2019-02-22T22:02:58.862Z,64.94
2019-02-22T22:05:28.237Z,64.42
2019-02-22T22:07:57.607Z,65.03
2019-02-22T22:10:26.947Z,63.74
2019-02-22T22:12:56.324Z,63.71
2019-02-22T22:15:25.669Z,63.13
2019-02-22T22:17:55.032Z,62.79
2019-02-22T22:20:24.372Z,63.52
2019-02-22T22:22:53.727Z,62.87
2019-02-22T22:25:23.061Z,61.86
2019-02-22T22:27:52.424Z,62.99
2019-02-22T22:30:21.757Z,61.38
2019-02-22T22:32:52.640Z,62.37
2019-02-22T22:35:22.160Z,62.02
2019-02-22T22:37:51.587Z,61.43
2019-02-22T22:40:20.935Z,61.89
2019-02-22T22:42:50.307Z,62.71
2019-02-22T22:45:19.725Z,63.09
2019-02-22T22:47:49.088Z,62.70
2019-02-22T22:50:18.422Z,63.14
2019-02-22T22:52:47.800Z,64.04
2019-02-22T22:55:17.136Z,63.79
2019-02-22T22:57:46.523Z,64.03
2019-02-22T23:00:29.694Z,63.64
2019-02-22T23:02:59.063Z,65.89
2019-02-22T23:05:28.405Z,65.04
2019-02-22T23:07:57.774Z,66.04
2019-02-22T23:10:27.146Z,66.67
2019-02-22T23:12:56.493Z,68.53
2019-02-22T23:15:25.855Z,66.58
2019-02-22T23:17:55.195Z,67.49
2019-02-22T23:20:24.567Z,68.56
2019-02-22T23:22:53.912Z,68.43
2019-02-22T23:25:23.288Z,66.77
2019-02-22T23:27:52.624Z,67.29
2019-02-22T23:30:21.989Z,68.57
2019-02-22T23:32:51.336Z,69.48
2019-02-22T23:35:20.775Z,70.53
2019-02-22T23:37:50.111Z,70.05
2019-02-22T23:40:19.478Z,69.97
2019-02-22T23:42:48.815Z,69.02
2019-02-22T23:45:18.182Z,68.70
2019-02-22T23:47:47.517Z,69.82
2019-02-22T23:50:16.887Z,69.37
2019-02-22T23:52:46.299Z,69.78
2019-02-22T23:55:15.669Z,70.37
2019-02-22T23:57:45.010Z,70.88
